Time;durP1;ratioP1;P1;durP2;ratioP2;P2;SDS_P1;SDS_P2;PMS_P1;PMS_P2;Temp;Humidity;BMP_temperature;BMP_pressure;BME280_temperature;BME280_humidity;BME280_pressure;Samples;Min_cycle;Max_cycle;Signal;HPM_P1;HPM_P2
2022/08/15 00:01:09;;;;;;;5.53;3.67;;;;;;;;;;4959160;28;20704;-45
2022/08/15 00:03:40;;;;;;;6.23;4.17;;;;;;;;;;4958131;28;20586;-45
2022/08/15 00:06:09;;;;;;;4.63;3.30;;;;;;;;;;4956005;28;20256;-45
2022/08/15 00:08:39;;;;;;;4.53;3.30;;;;;;;;;;4959909;28;20653;-45
2022/08/15 00:11:10;;;;;;;6.90;3.87;;;;;;;;;;4956729;28;20189;-45
2022/08/15 00:13:37;;;;;;;4.90;3.77;;;;;;;;;;4955682;28;20943;-45
2022/08/15 00:16:05;;;;;;;4.90;3.80;;;;;;;;;;4956983;28;20300;-45
2022/08/15 00:18:31;;;;;;;4.70;3.93;;;;;;;;;;4956917;28;20198;-45
2022/08/15 00:20:58;;;;;;;5.07;3.80;;;;;;;;;;4955700;28;20182;-45
2022/08/15 00:23:26;;;;;;;7.03;4.17;;;;;;;;;;4959625;28;20196;-45
2022/08/15 00:25:54;;;;;;;5.47;3.90;;;;;;;;;;4958944;28;20174;-45
2022/08/15 00:28:20;;;;;;;6.83;4.20;;;;;;;;;;4952790;28;20191;-45
2022/08/15 00:30:47;;;;;;;5.90;3.67;;;;;;;;;;4956493;28;20811;-45
2022/08/15 00:33:15;;;;;;;5.00;3.67;;;;;;;;;;4958920;28;20395;-45
2022/08/15 00:35:42;;;;;;;3.93;3.53;;;;;;;;;;4956690;28;20280;-45
2022/08/15 00:38:13;;;;;;;3.97;3.43;;;;;;;;;;4954752;28;21006;-45
2022/08/15 00:43:27;;;;;;;5.37;3.83;;;;;;;;;;4957866;28;20217;-45
2022/08/15 00:45:54;;;;;;;3.50;3.20;;;;;;;;;;4955373;28;20166;-45
2022/08/15 00:51:09;;;;;;;4.87;4.17;;;;;;;;;;4957250;28;20263;-45
2022/08/15 00:53:35;;;;;;;5.87;3.90;;;;;;;;;;4956403;28;20190;-45
2022/08/15 00:56:02;;;;;;;3.70;3.33;;;;;;;;;;4952903;28;20182;-45
2022/08/15 00:58:28;;;;;;;6.40;3.70;;;;;;;;;;4987910;28;20670;-45
2022/08/15 01:00:55;;;;;;;6.03;3.80;;;;;;;;;;4955514;28;20755;-45
2022/08/15 01:03:24;;;;;;;7.10;3.73;;;;;;;;;;4954180;28;20181;-45
2022/08/15 01:05:52;;;;;;;4.40;3.40;;;;;;;;;;4955569;28;20202;-45
2022/08/15 01:08:20;;;;;;;3.63;3.33;;;;;;;;;;4959191;28;20174;-45
2022/08/15 01:10:47;;;;;;;5.60;3.53;;;;;;;;;;4953479;28;20206;-45
2022/08/15 01:13:13;;;;;;;4.90;3.80;;;;;;;;;;4954956;28;20183;-45
2022/08/15 01:15:40;;;;;;;4.10;3.23;;;;;;;;;;4956396;28;20543;-45
2022/08/15 01:18:06;;;;;;;4.57;3.57;;;;;;;;;;4958732;28;20508;-45
2022/08/15 01:20:33;;;;;;;5.73;3.70;;;;;;;;;;4955503;28;20440;-45
2022/08/15 01:23:09;;;;;;;4.43;3.20;;;;;;;;;;4954666;28;20579;-45
2022/08/15 01:25:48;;;;;;;5.17;3.23;;;;;;;;;;4958561;28;20236;-45
2022/08/15 01:28:32;;;;;;;4.50;3.20;;;;;;;;;;4953161;28;20454;-45
2022/08/15 01:31:00;;;;;;;6.00;3.03;;;;;;;;;;4956230;28;20178;-45
2022/08/15 01:33:28;;;;;;;4.27;3.10;;;;;;;;;;4956212;28;20178;-45
2022/08/15 01:35:54;;;;;;;6.03;3.07;;;;;;;;;;4954332;28;20653;-45
2022/08/15 01:38:23;;;;;;;2.53;2.33;;;;;;;;;;4957260;28;20256;-45
2022/08/15 01:41:04;;;;;;;4.87;3.00;;;;;;;;;;4955126;28;20992;-45
2022/08/15 01:43:32;;;;;;;5.07;2.77;;;;;;;;;;4954871;28;20373;-45
2022/08/15 01:46:02;;;;;;;4.70;2.80;;;;;;;;;;4959029;28;20623;-45
2022/08/15 01:48:31;;;;;;;4.93;2.87;;;;;;;;;;4953927;28;20650;-45
2022/08/15 01:51:00;;;;;;;4.60;2.83;;;;;;;;;;4954416;28;20175;-45
2022/08/15 01:53:42;;;;;;;4.73;2.80;;;;;;;;;;4956007;28;20497;-45
2022/08/15 01:56:14;;;;;;;5.13;2.70;;;;;;;;;;4954798;28;20719;-45
2022/08/15 01:58:42;;;;;;;3.40;2.50;;;;;;;;;;4956594;28;20292;-45
2022/08/15 02:01:10;;;;;;;4.37;2.87;;;;;;;;;;4955231;28;20325;-45
2022/08/15 02:03:38;;;;;;;4.00;2.90;;;;;;;;;;4953621;28;20728;-45
2022/08/15 02:06:04;;;;;;;4.10;2.73;;;;;;;;;;4955792;28;20190;-45
2022/08/15 02:08:30;;;;;;;4.53;2.97;;;;;;;;;;4949534;28;20566;-45
2022/08/15 02:10:57;;;;;;;3.20;2.37;;;;;;;;;;4951239;28;20210;-45
2022/08/15 02:13:24;;;;;;;2.80;2.53;;;;;;;;;;4955075;28;20189;-45
2022/08/15 02:15:50;;;;;;;2.83;2.63;;;;;;;;;;4952882;28;20930;-45
2022/08/15 02:18:16;;;;;;;3.90;2.70;;;;;;;;;;4953200;28;20233;-45
2022/08/15 02:20:42;;;;;;;2.63;2.27;;;;;;;;;;4956663;28;20459;-45
2022/08/15 02:23:09;;;;;;;2.43;2.23;;;;;;;;;;4954467;28;20821;-45
2022/08/15 02:25:35;;;;;;;2.77;2.43;;;;;;;;;;4953715;28;20243;-45
2022/08/15 02:28:02;;;;;;;3.50;2.40;;;;;;;;;;4956102;28;20556;-45
2022/08/15 02:30:28;;;;;;;4.53;2.90;;;;;;;;;;4955619;28;20276;-45
2022/08/15 02:32:56;;;;;;;3.03;2.50;;;;;;;;;;4953683;28;20384;-45
2022/08/15 02:35:22;;;;;;;3.67;2.40;;;;;;;;;;4955677;28;20515;-45
2022/08/15 02:37:49;;;;;;;2.50;2.30;;;;;;;;;;4951588;28;20522;-45
2022/08/15 02:40:15;;;;;;;2.97;2.57;;;;;;;;;;4951756;28;20440;-45
2022/08/15 02:42:43;;;;;;;3.67;2.80;;;;;;;;;;4955861;28;20284;-45
2022/08/15 02:45:10;;;;;;;5.10;2.77;;;;;;;;;;4952807;28;20546;-45
2022/08/15 02:47:37;;;;;;;3.13;2.30;;;;;;;;;;4953030;28;20277;-45
2022/08/15 02:50:05;;;;;;;2.20;2.10;;;;;;;;;;4955317;28;20566;-45
2022/08/15 02:52:31;;;;;;;3.80;2.40;;;;;;;;;;4952329;28;20649;-44
2022/08/15 02:54:59;;;;;;;4.07;2.47;;;;;;;;;;4955451;28;20186;-45
2022/08/15 02:57:25;;;;;;;3.70;2.57;;;;;;;;;;4957115;28;20205;-45
2022/08/15 02:59:51;;;;;;;3.40;2.50;;;;;;;;;;4953651;28;20232;-45
2022/08/15 03:02:17;;;;;;;3.73;2.50;;;;;;;;;;4953387;28;20244;-45
2022/08/15 03:04:45;;;;;;;3.90;2.40;;;;;;;;;;4954693;28;20179;-45
2022/08/15 03:07:11;;;;;;;2.90;2.60;;;;;;;;;;4954995;28;20758;-45
2022/08/15 03:09:37;;;;;;;3.37;2.60;;;;;;;;;;4952541;28;20185;-45
2022/08/15 03:12:04;;;;;;;3.30;2.43;;;;;;;;;;4956525;28;20182;-45
2022/08/15 03:14:30;;;;;;;3.13;2.20;;;;;;;;;;4957804;28;20643;-45
2022/08/15 03:16:57;;;;;;;3.97;2.63;;;;;;;;;;4955683;28;20573;-45
2022/08/15 03:19:25;;;;;;;3.00;2.67;;;;;;;;;;4957151;28;20252;-45
2022/08/15 03:21:51;;;;;;;3.90;2.67;;;;;;;;;;4956371;28;20992;-45
2022/08/15 03:24:19;;;;;;;2.70;2.23;;;;;;;;;;4956855;28;20185;-45
2022/08/15 03:26:46;;;;;;;3.67;2.60;;;;;;;;;;4959977;28;20182;-45
2022/08/15 03:29:12;;;;;;;2.63;2.43;;;;;;;;;;4956608;28;20182;-45
2022/08/15 03:31:39;;;;;;;2.50;2.30;;;;;;;;;;4957440;28;20812;-45
2022/08/15 03:34:05;;;;;;;2.77;2.30;;;;;;;;;;4960149;28;20193;-45
2022/08/15 03:36:31;;;;;;;3.63;2.73;;;;;;;;;;4958847;28;20244;-45
2022/08/15 03:38:57;;;;;;;3.27;2.90;;;;;;;;;;4956935;28;20361;-45
2022/08/15 03:41:23;;;;;;;6.33;2.70;;;;;;;;;;4959879;28;20753;-43
2022/08/15 03:43:50;;;;;;;2.50;2.30;;;;;;;;;;4954902;28;20174;-45
2022/08/15 03:46:17;;;;;;;3.47;2.70;;;;;;;;;;4957123;28;20275;-45
2022/08/15 03:48:47;;;;;;;3.37;2.30;;;;;;;;;;4959610;28;20590;-45
2022/08/15 03:51:15;;;;;;;2.90;2.50;;;;;;;;;;4959421;28;20949;-45
2022/08/15 03:53:43;;;;;;;3.97;2.70;;;;;;;;;;4952058;28;20796;-45
2022/08/15 03:56:10;;;;;;;3.60;2.50;;;;;;;;;;4959887;28;20927;-45
2022/08/15 03:58:37;;;;;;;2.73;2.43;;;;;;;;;;4957428;28;20855;-45
2022/08/15 04:01:05;;;;;;;10.60;3.33;;;;;;;;;;4970971;28;20182;-45
2022/08/15 04:03:32;;;;;;;2.80;2.60;;;;;;;;;;4958135;28;20178;-45
2022/08/15 04:06:01;;;;;;;4.37;2.80;;;;;;;;;;4958770;28;20948;-45
2022/08/15 04:08:31;;;;;;;9.30;3.73;;;;;;;;;;4956494;28;20648;-45
2022/08/15 04:11:01;;;;;;;6.90;3.00;;;;;;;;;;4956534;28;20185;-45
2022/08/15 04:13:27;;;;;;;10.73;3.67;;;;;;;;;;4961217;28;20280;-45
2022/08/15 04:15:55;;;;;;;6.00;3.00;;;;;;;;;;4956475;28;20516;-45
2022/08/15 04:18:22;;;;;;;5.07;2.90;;;;;;;;;;4954673;28;20808;-45
2022/08/15 04:20:48;;;;;;;3.10;2.20;;;;;;;;;;4958380;28;20178;-45
2022/08/15 04:23:15;;;;;;;11.47;3.43;;;;;;;;;;4960054;28;20201;-45
2022/08/15 04:25:42;;;;;;;7.50;3.17;;;;;;;;;;4953947;28;20589;-45
2022/08/15 04:28:09;;;;;;;2.87;2.50;;;;;;;;;;4954521;28;21009;-45
2022/08/15 04:30:37;;;;;;;4.53;2.63;;;;;;;;;;4958908;28;20191;-45
2022/08/15 04:33:08;;;;;;;4.00;2.53;;;;;;;;;;4958433;28;20178;-45
2022/08/15 04:35:34;;;;;;;3.60;2.47;;;;;;;;;;4955585;28;20596;-45
2022/08/15 04:38:00;;;;;;;7.63;2.80;;;;;;;;;;4958784;28;20210;-45
2022/08/15 04:40:28;;;;;;;5.10;2.80;;;;;;;;;;4957991;28;20174;-45
2022/08/15 04:42:54;;;;;;;3.20;2.70;;;;;;;;;;4955772;28;20209;-45
2022/08/15 04:45:25;;;;;;;2.50;2.30;;;;;;;;;;4959102;28;20198;-45
2022/08/15 04:47:52;;;;;;;4.27;2.67;;;;;;;;;;4959128;28;20190;-45
2022/08/15 04:50:19;;;;;;;2.93;2.60;;;;;;;;;;4954538;28;20182;-45
2022/08/15 04:52:46;;;;;;;2.87;2.57;;;;;;;;;;4956720;28;21006;-45
2022/08/15 04:55:13;;;;;;;2.77;2.57;;;;;;;;;;4957777;28;20284;-45
2022/08/15 04:57:40;;;;;;;3.03;2.60;;;;;;;;;;4956023;28;20717;-45
2022/08/15 05:00:09;;;;;;;3.90;2.67;;;;;;;;;;4958302;28;20319;-44
2022/08/15 05:02:35;;;;;;;3.80;2.33;;;;;;;;;;4957986;28;20300;-45
2022/08/15 05:05:01;;;;;;;4.43;2.50;;;;;;;;;;4953481;28;20182;-45
2022/08/15 05:07:28;;;;;;;3.20;2.97;;;;;;;;;;4958336;28;20178;-45
2022/08/15 05:09:57;;;;;;;3.97;2.73;;;;;;;;;;4955296;28;20193;-44
2022/08/15 05:12:23;;;;;;;4.07;2.60;;;;;;;;;;4955781;28;20575;-44
2022/08/15 05:14:50;;;;;;;3.50;2.50;;;;;;;;;;4960449;28;20182;-45
2022/08/15 05:17:16;;;;;;;2.60;2.40;;;;;;;;;;4956204;28;20293;-44
2022/08/15 05:19:42;;;;;;;3.60;2.80;;;;;;;;;;4954133;28;20175;-43
2022/08/15 05:22:09;;;;;;;3.80;2.70;;;;;;;;;;4958647;28;20208;-45
2022/08/15 05:24:35;;;;;;;3.97;2.60;;;;;;;;;;4955879;28;20504;-45
2022/08/15 05:27:02;;;;;;;3.27;2.50;;;;;;;;;;4952576;28;20194;-45
2022/08/15 05:29:28;;;;;;;3.90;2.70;;;;;;;;;;4956905;28;20276;-45
2022/08/15 05:31:54;;;;;;;3.60;2.60;;;;;;;;;;4954627;28;20248;-45
2022/08/15 05:34:20;;;;;;;5.53;2.80;;;;;;;;;;4956657;28;20510;-45
2022/08/15 05:36:50;;;;;;;5.87;2.80;;;;;;;;;;4953796;28;20418;-44
2022/08/15 05:39:19;;;;;;;2.70;2.50;;;;;;;;;;4953876;28;20178;-45
2022/08/15 05:42:01;;;;;;;3.93;2.67;;;;;;;;;;4957093;28;20185;-45
2022/08/15 05:44:28;;;;;;;4.70;2.93;;;;;;;;;;4956877;28;20178;-45
2022/08/15 05:46:58;;;;;;;4.67;3.20;;;;;;;;;;4954982;28;20178;-44
2022/08/15 05:49:37;;;;;;;4.17;2.83;;;;;;;;;;4955350;28;20757;-45
2022/08/15 05:52:15;;;;;;;5.47;3.30;;;;;;;;;;4958610;28;20550;-44
2022/08/15 05:54:54;;;;;;;3.10;2.60;;;;;;;;;;4953783;28;20189;-45
2022/08/15 05:57:28;;;;;;;6.27;3.10;;;;;;;;;;4954243;28;20848;-45
2022/08/15 05:59:57;;;;;;;3.47;3.03;;;;;;;;;;4957778;28;20173;-45
2022/08/15 06:02:36;;;;;;;3.23;2.93;;;;;;;;;;4955383;28;20695;-45
2022/08/15 06:05:13;;;;;;;3.00;2.80;;;;;;;;;;4953746;28;20372;-45
2022/08/15 06:07:45;;;;;;;4.10;2.80;;;;;;;;;;4957606;28;20264;-45
2022/08/15 06:10:14;;;;;;;5.27;2.87;;;;;;;;;;4956074;28;20178;-45
2022/08/15 06:12:46;;;;;;;3.93;2.67;;;;;;;;;;4953651;28;20182;-44
2022/08/15 06:15:12;;;;;;;3.43;2.80;;;;;;;;;;4959040;28;20449;-44
2022/08/15 06:17:41;;;;;;;3.93;2.93;;;;;;;;;;4954710;28;21021;-45
2022/08/15 06:20:10;;;;;;;4.83;3.40;;;;;;;;;;4953092;28;20612;-44
2022/08/15 06:22:36;;;;;;;2.93;2.53;;;;;;;;;;4956081;28;20181;-43
2022/08/15 06:25:18;;;;;;;7.60;2.80;;;;;;;;;;4955759;28;20858;-45
2022/08/15 06:27:57;;;;;;;4.53;2.73;;;;;;;;;;4953752;28;20406;-44
2022/08/15 06:30:28;;;;;;;2.90;2.60;;;;;;;;;;4956465;28;20473;-45
2022/08/15 06:33:06;;;;;;;2.80;2.60;;;;;;;;;;4952844;28;20328;-44
2022/08/15 06:35:35;;;;;;;5.07;2.90;;;;;;;;;;4953056;28;20205;-45
2022/08/15 06:38:01;;;;;;;5.07;2.67;;;;;;;;;;4954906;28;20312;-45
2022/08/15 06:40:31;;;;;;;2.63;2.43;;;;;;;;;;4955026;28;20567;-44
2022/08/15 06:42:58;;;;;;;2.63;2.43;;;;;;;;;;4952816;28;20479;-44
2022/08/15 06:45:30;;;;;;;3.83;2.90;;;;;;;;;;4957456;28;20611;-45
2022/08/15 06:48:08;;;;;;;6.70;3.07;;;;;;;;;;4951587;28;20189;-45
2022/08/15 06:50:37;;;;;;;4.40;2.80;;;;;;;;;;4953859;28;20447;-44
2022/08/15 06:53:26;;;;;;;4.87;2.53;;;;;;;;;;4955887;28;20790;-44
2022/08/15 06:56:02;;;;;;;3.67;2.87;;;;;;;;;;4951304;28;20192;-45
2022/08/15 06:58:37;;;;;;;5.10;3.10;;;;;;;;;;4952060;28;20574;-44
2022/08/15 07:01:30;;;;;;;3.93;2.80;;;;;;;;;;4953983;28;20173;-44
2022/08/15 07:04:05;;;;;;;5.60;2.63;;;;;;;;;;4952288;28;20626;-44
2022/08/15 07:06:42;;;;;;;3.10;2.70;;;;;;;;;;4951169;28;20618;-45
2022/08/15 07:09:18;;;;;;;7.23;2.50;;;;;;;;;;4954496;28;20193;-45
2022/08/15 07:11:50;;;;;;;5.90;2.60;;;;;;;;;;4951999;28;20341;-45
2022/08/15 07:14:16;;;;;;;2.97;2.20;;;;;;;;;;4953802;28;20503;-44
2022/08/15 07:16:48;;;;;;;5.17;2.80;;;;;;;;;;4954248;28;20198;-45
2022/08/15 07:19:15;;;;;;;4.17;2.60;;;;;;;;;;4953066;28;20404;-45
2022/08/15 07:21:41;;;;;;;4.33;2.67;;;;;;;;;;4951940;28;20178;-44
2022/08/15 07:24:07;;;;;;;5.27;2.50;;;;;;;;;;4955221;28;20925;-44
2022/08/15 07:26:39;;;;;;;3.97;2.40;;;;;;;;;;4953235;28;20697;-44
2022/08/15 07:29:11;;;;;;;6.67;2.50;;;;;;;;;;4953445;28;20392;-45
2022/08/15 07:31:38;;;;;;;4.13;2.80;;;;;;;;;;4954517;28;20182;-44
2022/08/15 07:34:14;;;;;;;5.00;2.50;;;;;;;;;;4952415;28;20178;-44
2022/08/15 07:36:49;;;;;;;3.63;2.60;;;;;;;;;;4954800;28;20252;-45
2022/08/15 07:39:24;;;;;;;4.30;2.60;;;;;;;;;;4955566;28;20201;-44
2022/08/15 07:41:50;;;;;;;5.00;3.07;;;;;;;;;;4950150;28;20647;-44
2022/08/15 07:44:20;;;;;;;5.10;2.60;;;;;;;;;;4954164;28;20186;-45
2022/08/15 07:47:00;;;;;;;2.93;2.60;;;;;;;;;;4954996;28;20178;-44
2022/08/15 07:49:29;;;;;;;5.30;2.67;;;;;;;;;;4951285;28;20678;-44
2022/08/15 07:52:01;;;;;;;4.20;2.70;;;;;;;;;;4954793;28;20167;-45
2022/08/15 07:54:43;;;;;;;3.73;2.90;;;;;;;;;;4955967;28;20617;-44
2022/08/15 07:57:20;;;;;;;4.30;2.80;;;;;;;;;;4951208;28;20570;-44
2022/08/15 08:00:02;;;;;;;4.97;3.17;;;;;;;;;;4954078;28;20175;-45
2022/08/15 08:02:31;;;;;;;2.83;2.57;;;;;;;;;;4958983;28;20243;-45
2022/08/15 08:05:00;;;;;;;5.00;2.63;;;;;;;;;;4955760;28;20487;-45
2022/08/15 08:07:32;;;;;;;2.83;2.30;;;;;;;;;;4959315;28;20268;-45
2022/08/15 08:10:02;;;;;;;3.90;2.50;;;;;;;;;;4957071;28;20185;-45
2022/08/15 08:12:30;;;;;;;2.67;2.07;;;;;;;;;;4955890;28;20794;-45
2022/08/15 08:15:02;;;;;;;6.50;2.30;;;;;;;;;;4959053;28;20886;-45
2022/08/15 08:17:36;;;;;;;4.30;2.37;;;;;;;;;;4957606;28;20350;-45
2022/08/15 08:20:11;;;;;;;4.73;2.40;;;;;;;;;;4955994;28;20570;-45
2022/08/15 08:22:47;;;;;;;4.80;2.13;;;;;;;;;;4956766;28;20176;-45
2022/08/15 08:25:28;;;;;;;3.17;2.30;;;;;;;;;;4955519;28;20174;-45
2022/08/15 08:27:54;;;;;;;3.00;2.43;;;;;;;;;;4952153;28;20192;-45
2022/08/15 08:30:31;;;;;;;5.03;2.50;;;;;;;;;;4958883;28;20229;-45
2022/08/15 08:32:57;;;;;;;2.43;2.00;;;;;;;;;;4957839;28;21056;-45
2022/08/15 08:35:29;;;;;;;3.77;2.00;;;;;;;;;;4954766;28;20209;-45
2022/08/15 08:38:14;;;;;;;3.80;2.03;;;;;;;;;;4960170;28;20208;-45
2022/08/15 08:43:55;;;;;;;2.67;1.80;;;;;;;;;;4953947;28;20685;-45
2022/08/15 08:46:40;;;;;;;1.97;1.80;;;;;;;;;;4959138;28;20182;-45
2022/08/15 08:49:06;;;;;;;3.97;1.90;;;;;;;;;;4955312;28;20205;-45
2022/08/15 08:51:35;;;;;;;5.53;2.07;;;;;;;;;;4957160;28;20736;-45
2022/08/15 08:54:12;;;;;;;4.47;2.20;;;;;;;;;;4958468;28;20190;-45
2022/08/15 08:56:41;;;;;;;4.83;2.03;;;;;;;;;;4956160;28;20461;-45
2022/08/15 08:59:10;;;;;;;2.20;2.00;;;;;;;;;;4957730;28;20343;-45
2022/08/15 09:01:37;;;;;;;3.27;2.20;;;;;;;;;;4959262;28;20213;-45
2022/08/15 09:04:06;;;;;;;2.60;2.20;;;;;;;;;;4954339;28;20257;-45
2022/08/15 09:06:36;;;;;;;2.37;2.13;;;;;;;;;;4957121;28;20174;-45
2022/08/15 09:09:08;;;;;;;2.57;1.87;;;;;;;;;;4958242;28;20190;-45
2022/08/15 09:11:42;;;;;;;5.53;2.20;;;;;;;;;;4956350;28;20174;-45
2022/08/15 09:14:32;;;;;;;2.33;2.07;;;;;;;;;;4954530;28;20753;-45
2022/08/15 09:17:00;;;;;;;3.10;2.00;;;;;;;;;;4957897;28;20979;-45
2022/08/15 09:19:28;;;;;;;3.23;1.90;;;;;;;;;;4958352;28;20680;-45
2022/08/15 09:21:55;;;;;;;2.97;2.00;;;;;;;;;;4954860;28;20260;-45
2022/08/15 09:24:23;;;;;;;2.87;1.90;;;;;;;;;;4955544;28;20699;-45
2022/08/15 09:26:58;;;;;;;2.90;2.20;;;;;;;;;;4959904;28;20183;-45
2022/08/15 09:29:44;;;;;;;2.50;2.20;;;;;;;;;;4958816;28;20177;-46
2022/08/15 09:32:33;;;;;;;1.87;1.73;;;;;;;;;;4956338;28;20178;-45
2022/08/15 09:35:18;;;;;;;3.10;2.00;;;;;;;;;;4951425;28;20195;-45
2022/08/15 09:37:47;;;;;;;2.33;2.00;;;;;;;;;;4954334;28;20202;-45
2022/08/15 09:40:35;;;;;;;2.93;2.13;;;;;;;;;;4954797;28;20256;-45
2022/08/15 09:43:13;;;;;;;4.33;3.13;;;;;;;;;;4954676;28;20182;-45
2022/08/15 09:45:45;;;;;;;3.87;2.57;;;;;;;;;;4958553;28;20671;-45
2022/08/15 09:48:19;;;;;;;5.37;3.00;;;;;;;;;;4949100;28;20697;-45
2022/08/15 09:50:46;;;;;;;2.47;2.20;;;;;;;;;;4953335;28;20376;-45
2022/08/15 09:53:23;;;;;;;3.97;2.40;;;;;;;;;;4956734;28;20191;-44
2022/08/15 09:55:50;;;;;;;2.63;2.13;;;;;;;;;;4968157;28;20627;-45
2022/08/15 09:58:20;;;;;;;4.70;2.13;;;;;;;;;;4956021;28;20532;-43
2022/08/15 10:01:03;;;;;;;2.83;2.00;;;;;;;;;;4957608;28;20373;-45
2022/08/15 10:03:45;;;;;;;3.83;2.07;;;;;;;;;;4955364;28;20972;-44
2022/08/15 10:06:12;;;;;;;3.07;2.40;;;;;;;;;;4956315;28;20246;-45
2022/08/15 10:08:54;;;;;;;4.23;2.03;;;;;;;;;;4954607;28;20187;-44
2022/08/15 10:11:27;;;;;;;4.07;2.20;;;;;;;;;;4955707;28;20186;-44
2022/08/15 10:14:14;;;;;;;2.63;2.20;;;;;;;;;;4953391;28;20181;-45
2022/08/15 10:16:40;;;;;;;3.63;2.33;;;;;;;;;;4965548;28;20277;-45
2022/08/15 10:19:25;;;;;;;4.00;2.50;;;;;;;;;;4955310;28;20212;-45
2022/08/15 10:21:52;;;;;;;2.70;2.23;;;;;;;;;;4952784;28;20529;-44
2022/08/15 10:24:23;;;;;;;3.00;2.13;;;;;;;;;;4956062;28;20187;-44
2022/08/15 10:27:08;;;;;;;3.10;2.47;;;;;;;;;;4954884;28;20209;-45
2022/08/15 10:29:36;;;;;;;4.13;2.57;;;;;;;;;;4952994;28;20223;-45
2022/08/15 10:32:03;;;;;;;2.47;2.27;;;;;;;;;;4956170;28;20180;-44
2022/08/15 10:34:35;;;;;;;3.57;2.03;;;;;;;;;;4953969;28;20216;-44
2022/08/15 10:37:09;;;;;;;4.37;2.50;;;;;;;;;;4953411;28;20711;-45
2022/08/15 10:39:54;;;;;;;2.63;2.20;;;;;;;;;;4957161;28;20192;-45
2022/08/15 10:42:23;;;;;;;2.70;2.23;;;;;;;;;;4954430;28;20202;-44
2022/08/15 10:44:59;;;;;;;4.13;2.30;;;;;;;;;;4940224;28;20449;-45
2022/08/15 10:47:47;;;;;;;5.70;3.10;;;;;;;;;;4951244;28;20607;-44
2022/08/15 10:50:20;;;;;;;5.60;2.70;;;;;;;;;;4952387;28;20743;-45
2022/08/15 10:52:47;;;;;;;4.43;2.67;;;;;;;;;;4951487;28;20210;-45
2022/08/15 10:55:25;;;;;;;3.63;2.47;;;;;;;;;;4953089;28;20595;-44
2022/08/15 10:57:57;;;;;;;5.27;2.80;;;;;;;;;;4952483;28;20859;-45
2022/08/15 11:00:41;;;;;;;3.27;2.67;;;;;;;;;;4949821;28;20186;-44
2022/08/15 11:03:34;;;;;;;3.13;2.40;;;;;;;;;;4951289;28;20186;-45
2022/08/15 11:06:06;;;;;;;4.70;2.77;;;;;;;;;;4951725;28;20702;-44
2022/08/15 11:08:34;;;;;;;3.33;2.60;;;;;;;;;;4952236;28;20193;-44
2022/08/15 11:11:07;;;;;;;4.13;2.50;;;;;;;;;;4956683;28;20252;-45
2022/08/15 11:13:35;;;;;;;5.43;2.70;;;;;;;;;;4950827;28;21091;-45
2022/08/15 11:16:09;;;;;;;5.83;2.90;;;;;;;;;;4949051;28;20182;-44
2022/08/15 11:18:43;;;;;;;4.17;2.53;;;;;;;;;;4957015;28;20198;-44
2022/08/15 11:21:29;;;;;;;4.40;2.80;;;;;;;;;;4956113;28;20214;-45
2022/08/15 11:23:57;;;;;;;3.27;2.27;;;;;;;;;;4953565;28;20186;-45
2022/08/15 11:26:28;;;;;;;3.87;2.50;;;;;;;;;;4957597;28;20233;-44
2022/08/15 11:29:17;;;;;;;3.43;2.30;;;;;;;;;;4954321;28;20786;-45
2022/08/15 11:31:54;;;;;;;4.40;2.77;;;;;;;;;;4954188;28;20189;-44
2022/08/15 11:34:22;;;;;;;5.70;2.57;;;;;;;;;;4959808;28;20182;-44
2022/08/15 11:36:49;;;;;;;4.00;2.70;;;;;;;;;;4958690;28;20187;-44
2022/08/15 11:39:17;;;;;;;4.33;2.50;;;;;;;;;;4957842;28;20210;-45
2022/08/15 11:41:47;;;;;;;5.03;2.43;;;;;;;;;;4959604;28;20207;-45
2022/08/15 11:44:14;;;;;;;5.40;3.07;;;;;;;;;;4960942;28;20910;-44
2022/08/15 11:46:41;;;;;;;3.77;2.60;;;;;;;;;;4961021;28;20171;-45
2022/08/15 11:49:08;;;;;;;4.50;2.40;;;;;;;;;;4957403;28;20174;-44
2022/08/15 11:51:36;;;;;;;6.57;2.67;;;;;;;;;;4961625;28;20185;-44
2022/08/15 11:54:04;;;;;;;5.50;2.93;;;;;;;;;;4961436;28;20260;-44
2022/08/15 11:56:48;;;;;;;5.10;2.90;;;;;;;;;;4957497;28;20750;-44
2022/08/15 11:59:22;;;;;;;3.53;2.60;;;;;;;;;;4960851;28;20421;-44
2022/08/15 12:02:07;;;;;;;5.30;2.70;;;;;;;;;;4959380;28;20572;-44
2022/08/15 12:04:34;;;;;;;2.90;2.60;;;;;;;;;;4959258;28;20776;-45
2022/08/15 12:07:33;;;;;;;6.00;2.90;;;;;;;;;;4960218;28;20489;-44
2022/08/15 12:10:00;;;;;;;2.93;2.53;;;;;;;;;;4956358;28;20693;-44
2022/08/15 12:12:26;;;;;;;4.13;2.80;;;;;;;;;;4959566;28;20699;-44
2022/08/15 12:14:56;;;;;;;4.80;2.40;;;;;;;;;;4958812;28;20191;-44
2022/08/15 12:17:28;;;;;;;2.90;2.63;;;;;;;;;;4963199;28;20288;-44
2022/08/15 12:19:55;;;;;;;5.60;2.77;;;;;;;;;;4957758;28;20590;-45
2022/08/15 12:22:31;;;;;;;3.67;3.00;;;;;;;;;;4957538;28;20292;-44
2022/08/15 12:24:57;;;;;;;3.33;2.50;;;;;;;;;;4961597;28;20665;-45
2022/08/15 12:27:23;;;;;;;5.50;2.70;;;;;;;;;;4956945;28;20391;-44
2022/08/15 12:29:50;;;;;;;5.10;3.00;;;;;;;;;;4957649;28;21030;-44
2022/08/15 12:32:16;;;;;;;4.87;2.93;;;;;;;;;;4963373;28;20690;-45
2022/08/15 12:34:47;;;;;;;3.63;2.60;;;;;;;;;;4957625;28;20180;-45
2022/08/15 12:37:16;;;;;;;4.10;2.60;;;;;;;;;;4956900;28;20184;-44
2022/08/15 12:39:43;;;;;;;4.03;2.70;;;;;;;;;;4958919;28;20346;-44
2022/08/15 12:42:15;;;;;;;5.57;2.93;;;;;;;;;;4962689;28;20184;-45
2022/08/15 12:44:42;;;;;;;4.73;2.60;;;;;;;;;;4956131;28;20192;-45
2022/08/15 12:47:08;;;;;;;3.67;2.70;;;;;;;;;;4954757;28;20176;-45
2022/08/15 12:49:34;;;;;;;4.13;3.00;;;;;;;;;;4959208;28;20223;-44
2022/08/15 12:52:01;;;;;;;4.40;3.00;;;;;;;;;;4975429;28;20296;-44
2022/08/15 12:54:27;;;;;;;3.97;2.60;;;;;;;;;;4957603;28;20554;-45
2022/08/15 12:56:53;;;;;;;4.77;2.73;;;;;;;;;;4957514;28;20270;-45
2022/08/15 12:59:19;;;;;;;3.87;2.50;;;;;;;;;;4959322;28;20577;-45
2022/08/15 13:01:45;;;;;;;5.17;2.73;;;;;;;;;;4957671;28;20428;-45
2022/08/15 13:04:14;;;;;;;5.13;2.83;;;;;;;;;;4957739;28;20192;-44
2022/08/15 13:06:52;;;;;;;3.63;2.60;;;;;;;;;;4960029;28;20207;-45
2022/08/15 13:09:20;;;;;;;4.27;2.60;;;;;;;;;;4956551;28;20687;-44
2022/08/15 13:11:49;;;;;;;4.23;2.87;;;;;;;;;;4958026;28;20180;-44
2022/08/15 13:14:17;;;;;;;5.30;2.87;;;;;;;;;;4959438;28;20181;-45
2022/08/15 13:16:45;;;;;;;9.33;2.83;;;;;;;;;;4955781;28;20193;-45
2022/08/15 13:19:22;;;;;;;4.83;2.80;;;;;;;;;;4958017;28;21047;-45
2022/08/15 13:24:34;;;;;;;5.47;2.90;;;;;;;;;;4956998;28;20848;-45
2022/08/15 13:27:00;;;;;;;3.60;2.47;;;;;;;;;;4959845;28;20180;-44
2022/08/15 13:29:27;;;;;;;5.23;2.47;;;;;;;;;;4957171;28;20185;-44
2022/08/15 13:31:54;;;;;;;6.53;2.80;;;;;;;;;;4956618;28;20193;-45
2022/08/15 13:34:21;;;;;;;3.97;2.70;;;;;;;;;;4974529;28;20193;-44
2022/08/15 13:36:49;;;;;;;4.33;2.70;;;;;;;;;;4956098;28;20285;-45
2022/08/15 13:39:19;;;;;;;6.30;2.87;;;;;;;;;;4955820;28;20216;-45
2022/08/15 13:41:45;;;;;;;3.23;2.60;;;;;;;;;;4954232;28;21657;-45
2022/08/15 13:44:13;;;;;;;3.43;2.50;;;;;;;;;;4953714;28;20202;-45
2022/08/15 13:46:42;;;;;;;3.83;2.53;;;;;;;;;;4958747;28;20170;-45
2022/08/15 13:49:09;;;;;;;3.83;2.63;;;;;;;;;;4957695;28;20404;-45
2022/08/15 13:51:47;;;;;;;5.40;2.50;;;;;;;;;;4956087;28;20193;-45
2022/08/15 13:54:13;;;;;;;3.63;2.47;;;;;;;;;;4955196;28;20786;-45
2022/08/15 13:56:39;;;;;;;5.80;3.13;;;;;;;;;;4956401;28;20256;-45
2022/08/15 13:59:06;;;;;;;5.40;2.90;;;;;;;;;;4956295;28;20749;-45
2022/08/15 14:01:33;;;;;;;6.67;2.80;;;;;;;;;;4955732;28;20174;-45
2022/08/15 14:04:01;;;;;;;5.50;3.03;;;;;;;;;;4959243;28;20288;-44
2022/08/15 14:06:28;;;;;;;4.93;2.57;;;;;;;;;;4954542;28;20463;-45
2022/08/15 14:08:55;;;;;;;3.60;2.50;;;;;;;;;;4955698;28;20210;-44
2022/08/15 14:11:24;;;;;;;4.57;2.60;;;;;;;;;;4958946;28;20430;-45
2022/08/15 14:13:51;;;;;;;3.80;2.70;;;;;;;;;;4956487;28;20599;-45
2022/08/15 14:16:19;;;;;;;5.53;2.73;;;;;;;;;;4955857;28;20186;-45
2022/08/15 14:18:46;;;;;;;4.10;2.80;;;;;;;;;;4953995;28;20667;-45
2022/08/15 14:21:12;;;;;;;4.33;2.60;;;;;;;;;;4956591;28;20566;-45
2022/08/15 14:23:39;;;;;;;4.47;2.80;;;;;;;;;;4953630;28;20797;-45
2022/08/15 14:26:05;;;;;;;5.40;2.70;;;;;;;;;;4954561;28;20183;-45
2022/08/15 14:28:34;;;;;;;3.37;2.53;;;;;;;;;;4953784;28;20584;-45
2022/08/15 14:31:00;;;;;;;3.50;2.40;;;;;;;;;;4955700;28;20391;-45
2022/08/15 14:33:31;;;;;;;4.03;2.80;;;;;;;;;;4957469;28;20199;-45
2022/08/15 14:35:57;;;;;;;3.57;2.37;;;;;;;;;;4953939;28;20827;-45
2022/08/15 14:38:28;;;;;;;6.10;2.60;;;;;;;;;;4953304;28;20215;-45
2022/08/15 14:40:54;;;;;;;6.57;2.70;;;;;;;;;;4956585;28;20629;-45
2022/08/15 14:43:21;;;;;;;4.97;2.50;;;;;;;;;;4955611;28;20176;-45
2022/08/15 14:45:49;;;;;;;2.73;2.53;;;;;;;;;;4956099;28;20176;-45
2022/08/15 14:48:17;;;;;;;3.47;2.67;;;;;;;;;;4956752;28;20359;-45
2022/08/15 14:50:43;;;;;;;3.87;2.70;;;;;;;;;;4953465;28;21587;-45
2022/08/15 14:53:11;;;;;;;2.97;2.53;;;;;;;;;;4954421;28;20177;-45
2022/08/15 14:55:39;;;;;;;5.20;2.57;;;;;;;;;;4954715;28;20182;-45
2022/08/15 14:58:06;;;;;;;5.03;2.57;;;;;;;;;;4954161;28;20200;-45
2022/08/15 15:00:33;;;;;;;4.97;2.80;;;;;;;;;;4955664;28;20720;-45
2022/08/15 15:03:00;;;;;;;7.63;2.93;;;;;;;;;;4957373;28;20539;-45
2022/08/15 15:05:27;;;;;;;3.53;2.50;;;;;;;;;;4952289;28;20428;-45
2022/08/15 15:07:56;;;;;;;3.20;2.63;;;;;;;;;;4954522;28;20185;-45
2022/08/15 15:10:22;;;;;;;4.30;2.70;;;;;;;;;;4953299;28;20181;-45
2022/08/15 15:12:49;;;;;;;5.03;2.90;;;;;;;;;;4954013;28;20527;-45